My/aldabra — FFZV — position and weather

sailwx.info

Track history (hours):
 
Tides and Currents Weather Stations Pressure Air Temp Water Temp Dewpoint Dewpoint Depression Visibility Wind Speed Wind Dir Waves Ship Positions

My/aldabra

Last reported at 2015-Aug-31 09:30 UTC. Time now 2015-Sep-04 14:30 UTC.
Position N 43°34' E 007°05'.

Length 24 m.

Type: Ship. MMSI: 228004800.

Date/timePositionNaut miles runAvg speedWind from/ knotsBaromVisibWave heightAir tempDewpointWater temp
2015-Aug-31 09:30N 43°34' E 007°05'0 0.0
2015-Aug-31 08:33N 43°34' E 007°05'0 0.0
2015-Aug-31 07:33N 43°34' E 007°05'0 0.0
2015-Aug-31 06:33N 43°34' E 007°05'2 2.5
2015-Aug-31 05:33N 43°32' E 007°07'5110.2
2015-Aug-31 00:33N 42°55' E 007°55'1010.1
2015-Aug-30 23:33N 42°47' E 008°04'1010.2
2015-Aug-30 22:33N 42°39' E 008°12'1010.4
2015-Aug-30 21:33N 42°31' E 008°21'1110.5
2015-Aug-30 20:28N 42°22' E 008°30'  
Track history (hours):
 
Tides and Currents Weather Stations Pressure Air Temp Water Temp Dewpoint Dewpoint Depression Visibility Wind Speed Wind Dir Waves Ship Positions

My/aldabra

Last reported at 2015-Aug-31 09:30 UTC. Time now 2015-Sep-04 14:30 UTC.
Position N 43°34' E 007°05'.

Length 24 m.

Type: Ship. MMSI: 228004800.

Date/timePositionNaut miles runAvg speedWind from/ knotsBaromVisibWave heightAir tempDewpointWater temp
2015-Aug-31 09:30N 43°34' E 007°05'0 0.0
2015-Aug-31 08:33N 43°34' E 007°05'0 0.0
2015-Aug-31 07:33N 43°34' E 007°05'0 0.0
2015-Aug-31 06:33N 43°34' E 007°05'2 2.5
2015-Aug-31 05:33N 43°32' E 007°07'5110.2
2015-Aug-31 00:33N 42°55' E 007°55'1010.1
2015-Aug-30 23:33N 42°47' E 008°04'1010.2
2015-Aug-30 22:33N 42°39' E 008°12'1010.4
2015-Aug-30 21:33N 42°31' E 008°21'1110.5
2015-Aug-30 20:28N 42°22' E 008°30'  

Dump ship's entire track history